Time;durP1;ratioP1;P1;durP2;ratioP2;P2;SDS_P1;SDS_P2;PMS_P1;PMS_P2;Temp;Humidity;BMP_temperature;BMP_pressure;BME280_temperature;BME280_humidity;BME280_pressure;Samples;Min_cycle;Max_cycle;Signal;HPM_P1;HPM_P2
2023/11/22 00:02:00;;;;;;;2.90;2.30;;;8.90;61.80;;;;;;5033457;28;20160;-75
2023/11/22 00:04:29;;;;;;;2.85;2.58;;;8.90;61.80;;;;;;5013741;28;20044;-75
2023/11/22 00:06:59;;;;;;;2.50;2.17;;;8.90;61.90;;;;;;5022548;28;20454;-76
2023/11/22 00:09:35;;;;;;;3.97;2.40;;;8.80;61.70;;;;;;5028845;28;20032;-75
2023/11/22 00:12:02;;;;;;;3.95;2.05;;;8.80;61.70;;;;;;5026021;28;20041;-75
2023/11/22 00:14:28;;;;;;;2.80;2.42;;;8.80;61.70;;;;;;5021688;28;20121;-75
2023/11/22 00:16:55;;;;;;;2.97;2.28;;;8.80;61.70;;;;;;5037439;28;20045;-75
2023/11/22 00:19:24;;;;;;;3.38;2.47;;;8.80;61.80;;;;;;5029728;28;20029;-76
2023/11/22 00:21:50;;;;;;;3.40;2.20;;;8.80;61.80;;;;;;5022809;28;20025;-75
2023/11/22 00:24:18;;;;;;;3.90;2.22;;;8.80;61.80;;;;;;5026230;28;20545;-76
2023/11/22 00:26:44;;;;;;;4.25;2.58;;;8.70;61.60;;;;;;5025878;28;20503;-75
2023/11/22 00:29:10;;;;;;;2.33;2.13;;;8.70;61.70;;;;;;5015546;28;20056;-75
2023/11/22 00:31:36;;;;;;;3.88;2.50;;;8.80;61.80;;;;;;5028811;28;20355;-75
2023/11/22 00:34:02;;;;;;;2.70;2.50;;;8.80;61.90;;;;;;5022765;28;20476;-76
2023/11/22 00:36:29;;;;;;;5.15;2.40;;;8.70;61.70;;;;;;5016931;28;20068;-75
2023/11/22 00:38:55;;;;;;;3.67;2.30;;;8.70;61.80;;;;;;5027137;28;20029;-76
2023/11/22 00:41:21;;;;;;;4.30;2.65;;;8.70;61.80;;;;;;5022912;28;20113;-76
2023/11/22 00:43:48;;;;;;;3.20;2.35;;;8.70;61.80;;;;;;5030367;28;20021;-76
2023/11/22 00:46:14;;;;;;;5.03;2.15;;;8.70;61.80;;;;;;5021745;28;20045;-76
2023/11/22 00:48:40;;;;;;;3.22;2.17;;;8.70;61.90;;;;;;5020529;28;20060;-77
2023/11/22 00:51:08;;;;;;;2.80;2.20;;;8.70;61.90;;;;;;5040451;28;20501;-78
2023/11/22 00:53:36;;;;;;;3.88;2.20;;;8.70;61.90;;;;;;5023685;28;20082;-77
2023/11/22 00:56:05;;;;;;;4.55;2.53;;;8.70;61.90;;;;;;5025321;28;20037;-75
2023/11/22 00:58:31;;;;;;;2.38;2.17;;;8.70;61.90;;;;;;5018456;28;20355;-76
2023/11/22 01:00:57;;;;;;;2.35;2.10;;;8.70;62.00;;;;;;5019640;28;20033;-75
2023/11/22 01:03:23;;;;;;;5.38;2.38;;;8.70;62.00;;;;;;5019025;28;20843;-75
2023/11/22 01:05:49;;;;;;;2.83;2.30;;;8.70;62.10;;;;;;5016825;28;20577;-75
2023/11/22 01:08:15;;;;;;;2.42;2.22;;;8.70;62.10;;;;;;5022811;28;20029;-75
2023/11/22 01:10:41;;;;;;;2.85;1.98;;;8.70;62.10;;;;;;5023938;28;20396;-76
2023/11/22 01:13:07;;;;;;;4.07;2.45;;;8.70;62.10;;;;;;5050105;28;20025;-76
2023/11/22 01:15:34;;;;;;;3.10;2.20;;;8.70;62.10;;;;;;5020617;28;20017;-75
2023/11/22 01:18:00;;;;;;;4.97;2.40;;;8.70;62.20;;;;;;5020192;28;20060;-75
2023/11/22 01:20:26;;;;;;;3.55;2.20;;;8.70;62.20;;;;;;5018331;28;20156;-74
2023/11/22 01:22:52;;;;;;;4.88;2.30;;;8.70;62.20;;;;;;5024561;28;20059;-74
2023/11/22 01:25:19;;;;;;;3.10;2.63;;;8.70;62.20;;;;;;5030027;28;20094;-74
2023/11/22 01:27:45;;;;;;;3.65;2.42;;;8.60;62.10;;;;;;5020380;28;20250;-74
2023/11/22 01:30:12;;;;;;;2.92;2.30;;;8.60;62.10;;;;;;5026369;28;20131;-74
2023/11/22 01:32:37;;;;;;;3.83;2.63;;;8.60;62.10;;;;;;5023080;28;20029;-74
2023/11/22 01:35:05;;;;;;;5.82;3.10;;;8.60;62.10;;;;;;5029831;28;20056;-73
2023/11/22 01:37:32;;;;;;;2.97;2.20;;;8.60;62.10;;;;;;5022029;28;20064;-75
2023/11/22 01:39:58;;;;;;;3.15;2.88;;;8.60;62.20;;;;;;5031431;28;20041;-75
2023/11/22 01:42:25;;;;;;;4.00;2.75;;;8.60;62.20;;;;;;5024068;28;20033;-75
2023/11/22 01:44:52;;;;;;;2.97;2.67;;;8.60;62.20;;;;;;5026300;28;20069;-75
2023/11/22 01:47:19;;;;;;;3.13;2.42;;;8.60;62.20;;;;;;5021550;28;20041;-75
2023/11/22 01:49:46;;;;;;;4.72;2.90;;;8.60;62.20;;;;;;5022590;28;20079;-75
2023/11/22 01:52:13;;;;;;;5.38;2.72;;;8.60;62.20;;;;;;5017358;28;20108;-76
2023/11/22 01:54:39;;;;;;;3.83;2.45;;;8.60;62.30;;;;;;5022529;28;20040;-75
2023/11/22 01:57:08;;;;;;;4.00;2.55;;;8.50;62.10;;;;;;5027020;28;20024;-75
2023/11/22 01:59:35;;;;;;;3.47;2.40;;;8.50;62.20;;;;;;5026811;28;20021;-75
2023/11/22 02:02:01;;;;;;;3.45;2.97;;;8.50;62.20;;;;;;5017106;28;20041;-74
2023/11/22 02:04:27;;;;;;;5.07;2.50;;;8.50;62.30;;;;;;5018177;28;20873;-75
2023/11/22 02:06:53;;;;;;;3.20;2.80;;;8.50;62.30;;;;;;5021441;28;20096;-75
2023/11/22 02:09:19;;;;;;;4.38;2.80;;;8.50;62.30;;;;;;5028089;28;20029;-75
2023/11/22 02:11:47;;;;;;;3.95;3.33;;;8.50;62.40;;;;;;5030367;28;20790;-75
2023/11/22 02:14:13;;;;;;;3.47;2.47;;;8.40;62.20;;;;;;5043032;28;20029;-75
2023/11/22 02:16:41;;;;;;;2.47;2.28;;;8.40;62.20;;;;;;5020034;28;20031;-75
2023/11/22 02:19:14;;;;;;;3.22;2.33;;;8.40;62.30;;;;;;5028894;28;20251;-75
2023/11/22 02:21:42;;;;;;;3.17;2.80;;;8.50;62.40;;;;;;5040968;28;20037;-75
2023/11/22 02:24:12;;;;;;;3.92;2.90;;;8.40;62.30;;;;;;5027947;28;20033;-75
2023/11/22 02:26:43;;;;;;;3.95;2.78;;;8.40;62.30;;;;;;5019289;28;20041;-75
2023/11/22 02:29:10;;;;;;;4.03;2.38;;;8.40;62.30;;;;;;5026214;28;20032;-75
2023/11/22 02:31:41;;;;;;;4.13;2.58;;;8.40;62.40;;;;;;5026486;28;20123;-75
2023/11/22 02:34:09;;;;;;;3.10;2.60;;;8.40;62.40;;;;;;5030326;28;20037;-75
2023/11/22 02:36:35;;;;;;;5.43;2.58;;;8.40;62.90;;;;;;5027324;28;20037;-78
2023/11/22 02:39:02;;;;;;;4.20;2.83;;;8.40;62.40;;;;;;5022080;28;20049;-76
2023/11/22 02:41:32;;;;;;;3.15;2.70;;;8.40;62.40;;;;;;5022565;28;20044;-75
2023/11/22 02:44:01;;;;;;;3.90;2.83;;;8.40;62.50;;;;;;5019326;28;20417;-77
2023/11/22 02:46:30;;;;;;;3.67;3.08;;;8.40;62.50;;;;;;5052666;28;21227;-78
2023/11/22 02:48:59;;;;;;;6.45;3.35;;;8.40;62.50;;;;;;5027321;28;20041;-77
2023/11/22 02:51:29;;;;;;;6.22;3.38;;;8.40;63.10;;;;;;5054527;28;20032;-77
2023/11/22 02:53:56;;;;;;;4.03;2.83;;;8.40;62.60;;;;;;5029663;28;20247;-77
2023/11/22 02:56:25;;;;;;;4.68;3.13;;;8.40;62.60;;;;;;5030325;28;20034;-77
2023/11/22 02:58:52;;;;;;;3.70;2.97;;;8.40;62.60;;;;;;5025560;28;20059;-78
2023/11/22 03:01:19;;;;;;;7.32;3.33;;;8.40;62.60;;;;;;5023319;28;20030;-77
2023/11/22 03:03:49;;;;;;;5.50;3.30;;;8.30;62.50;;;;;;5027750;28;20033;-77
2023/11/22 03:06:16;;;;;;;6.70;4.57;;;8.40;62.70;;;;;;5056210;28;20038;-76
2023/11/22 03:08:44;;;;;;;3.50;2.90;;;8.40;62.80;;;;;;5035039;28;20119;-76
2023/11/22 03:11:11;;;;;;;4.03;3.58;;;8.40;62.70;;;;;;5024797;28;20056;-76
2023/11/22 03:13:37;;;;;;;4.72;3.75;;;8.40;62.80;;;;;;5030939;28;20350;-76
2023/11/22 03:16:08;;;;;;;5.55;3.10;;;8.30;62.60;;;;;;5023103;28;20037;-77
2023/11/22 03:18:36;;;;;;;5.30;3.72;;;8.40;62.80;;;;;;5008960;28;20038;-76
2023/11/22 03:21:02;;;;;;;6.13;3.30;;;8.40;62.80;;;;;;5032151;28;20030;-75
2023/11/22 03:23:29;;;;;;;5.63;3.45;;;8.40;62.90;;;;;;5033097;28;20041;-75
2023/11/22 03:25:55;;;;;;;4.30;2.85;;;8.40;62.90;;;;;;5026587;28;20284;-76
2023/11/22 03:28:23;;;;;;;4.15;3.20;;;8.40;62.90;;;;;;5028175;28;20179;-75
2023/11/22 03:30:50;;;;;;;4.78;3.42;;;8.40;62.90;;;;;;5022155;28;20030;-77
2023/11/22 03:33:17;;;;;;;4.70;3.78;;;8.40;62.90;;;;;;5029592;28;20038;-77
2023/11/22 03:35:47;;;;;;;5.47;3.58;;;8.40;63.00;;;;;;5034503;28;20060;-77
2023/11/22 03:38:14;;;;;;;3.92;3.38;;;8.40;63.00;;;;;;5027110;28;20029;-77
2023/11/22 03:40:47;;;;;;;4.55;2.95;;;8.30;62.80;;;;;;5027902;28;20453;-76
2023/11/22 03:43:15;;;;;;;4.80;3.67;;;8.40;63.00;;;;;;5027686;28;20048;-76
2023/11/22 03:45:41;;;;;;;4.22;3.15;;;8.40;63.10;;;;;;5018460;28;20041;-76
2023/11/22 03:48:08;;;;;;;3.67;3.17;;;8.40;63.10;;;;;;5020274;28;20036;-76
2023/11/22 03:50:36;;;;;;;4.13;3.13;;;8.40;63.20;;;;;;5023089;28;20033;-77
2023/11/22 03:53:07;;;;;;;4.82;3.58;;;8.40;63.20;;;;;;5009963;28;20037;-76
2023/11/22 03:55:34;;;;;;;5.50;3.30;;;8.40;63.20;;;;;;5030312;28;20080;-77
2023/11/22 03:58:03;;;;;;;4.00;3.60;;;8.40;63.30;;;;;;5006898;28;20038;-76
2023/11/22 04:00:35;;;;;;;6.82;3.72;;;8.40;63.30;;;;;;5024087;28;20469;-76
2023/11/22 04:03:01;;;;;;;5.05;3.67;;;8.40;63.30;;;;;;5023653;28;20127;-76
2023/11/22 04:05:28;;;;;;;4.32;3.40;;;8.40;63.40;;;;;;5018169;28;20052;-76
2023/11/22 04:07:56;;;;;;;5.35;4.28;;;8.40;63.40;;;;;;5027731;28;20034;-77
2023/11/22 04:10:23;;;;;;;4.10;3.70;;;8.40;63.40;;;;;;5015211;28;20477;-75
2023/11/22 04:12:50;;;;;;;5.05;3.13;;;8.40;63.40;;;;;;5036467;28;20496;-76
2023/11/22 04:15:18;;;;;;;3.70;3.38;;;8.50;63.70;;;;;;5027752;28;20458;-76
2023/11/22 04:17:45;;;;;;;4.18;3.30;;;8.50;63.70;;;;;;5021091;28;20060;-77
2023/11/22 04:20:14;;;;;;;3.83;3.42;;;8.50;63.70;;;;;;5024777;28;20040;-76
2023/11/22 04:22:42;;;;;;;5.10;3.35;;;8.50;63.70;;;;;;5026179;28;20029;-76
2023/11/22 04:25:09;;;;;;;6.10;3.47;;;8.50;63.70;;;;;;5024639;28;20048;-76
2023/11/22 04:27:36;;;;;;;4.78;3.50;;;8.50;63.80;;;;;;5016795;28;20037;-77
2023/11/22 04:30:03;;;;;;;4.55;3.55;;;8.50;63.80;;;;;;5027126;28;20042;-77
2023/11/22 04:32:29;;;;;;;5.50;3.33;;;8.50;63.80;;;;;;5023473;28;20338;-77
2023/11/22 04:34:54;;;;;;;5.82;3.70;;;8.50;63.80;;;;;;5027224;28;20047;-77
2023/11/22 04:37:23;;;;;;;4.05;3.10;;;8.40;63.60;;;;;;5025480;28;20035;-77
2023/11/22 04:39:52;;;;;;;4.38;3.45;;;8.50;63.80;;;;;;5030125;28;20497;-76
2023/11/22 04:42:21;;;;;;;5.65;3.35;;;8.40;63.60;;;;;;5029286;28;20116;-76
2023/11/22 04:44:47;;;;;;;5.55;3.25;;;8.40;63.70;;;;;;5027165;28;20072;-76
2023/11/22 04:47:13;;;;;;;5.32;3.92;;;8.40;63.70;;;;;;5027501;28;20033;-77
2023/11/22 04:49:39;;;;;;;3.85;3.45;;;8.40;63.70;;;;;;5014972;28;20037;-76
2023/11/22 04:52:05;;;;;;;4.18;3.25;;;8.40;63.70;;;;;;5029422;28;20076;-77
2023/11/22 04:54:32;;;;;;;4.60;2.83;;;8.40;63.70;;;;;;5037024;28;20026;-78
2023/11/22 04:56:59;;;;;;;3.28;3.08;;;8.40;63.80;;;;;;5026863;28;20076;-76
2023/11/22 04:59:25;;;;;;;3.80;3.47;;;8.30;63.70;;;;;;5026846;28;20034;-77
2023/11/22 05:01:51;;;;;;;3.60;2.97;;;8.40;63.80;;;;;;5020194;28;20351;-77
2023/11/22 05:04:18;;;;;;;7.18;3.55;;;8.40;63.90;;;;;;5003549;28;20037;-77
2023/11/22 05:06:45;;;;;;;3.65;3.30;;;8.40;63.90;;;;;;5027107;28;20124;-79
2023/11/22 05:09:13;;;;;;;5.60;3.60;;;8.40;63.90;;;;;;5035052;28;20041;-77
2023/11/22 05:11:41;;;;;;;4.43;3.63;;;8.30;63.70;;;;;;5039417;28;20037;-77
2023/11/22 05:14:07;;;;;;;5.93;3.33;;;8.40;63.90;;;;;;5040783;28;20049;-76
2023/11/22 05:16:34;;;;;;;4.97;3.50;;;8.40;63.90;;;;;;5034783;28;20030;-77
2023/11/22 05:19:00;;;;;;;4.30;3.58;;;8.40;64.00;;;;;;5030873;28;20554;-76
2023/11/22 05:21:27;;;;;;;4.03;3.65;;;8.40;64.00;;;;;;5023001;28;20167;-76
2023/11/22 05:23:56;;;;;;;6.65;3.80;;;8.30;63.80;;;;;;5041141;28;20082;-77
2023/11/22 05:26:23;;;;;;;6.07;4.35;;;8.40;64.10;;;;;;5033063;28;20451;-76
2023/11/22 05:28:49;;;;;;;7.15;4.03;;;8.30;63.90;;;;;;5025148;28;20025;-75
2023/11/22 05:31:16;;;;;;;4.85;3.90;;;8.40;64.10;;;;;;5026805;28;20072;-75
2023/11/22 05:33:42;;;;;;;4.22;3.83;;;8.40;64.10;;;;;;5027808;28;20033;-75
2023/11/22 05:36:08;;;;;;;5.32;3.75;;;8.30;63.90;;;;;;5031939;28;20025;-76
2023/11/22 05:38:34;;;;;;;5.95;3.95;;;8.30;63.90;;;;;;5023202;28;20477;-76
2023/11/22 05:41:01;;;;;;;5.53;4.25;;;8.40;64.10;;;;;;5028749;28;20053;-78
2023/11/22 05:43:27;;;;;;;6.55;5.55;;;8.30;64.00;;;;;;5030214;28;20025;-77
2023/11/22 05:45:53;;;;;;;5.35;4.15;;;8.30;64.00;;;;;;5037406;28;20052;-78
2023/11/22 05:48:20;;;;;;;5.22;4.55;;;8.40;64.30;;;;;;5028156;28;20076;-77
2023/11/22 05:50:47;;;;;;;4.55;4.15;;;8.30;64.10;;;;;;5031074;28;20147;-77
2023/11/22 05:53:19;;;;;;;5.53;4.20;;;8.40;64.30;;;;;;5061896;28;20571;-76
2023/11/22 05:55:48;;;;;;;5.00;4.13;;;8.30;64.20;;;;;;5028386;28;20373;-77
2023/11/22 05:58:16;;;;;;;5.47;4.22;;;8.40;64.40;;;;;;5026355;28;20064;-77
2023/11/22 06:00:46;;;;;;;5.97;4.15;;;8.30;64.20;;;;;;5027193;28;20037;-76
2023/11/22 06:03:13;;;;;;;4.65;4.10;;;8.40;65.00;;;;;;5027697;28;20029;-76
2023/11/22 06:05:40;;;;;;;5.45;4.50;;;8.30;64.30;;;;;;5030818;28;20296;-77
2023/11/22 06:08:06;;;;;;;4.95;3.63;;;8.30;64.30;;;;;;5023377;28;20033;-78
2023/11/22 06:10:33;;;;;;;6.78;4.07;;;8.40;64.50;;;;;;5025613;28;20040;-77
2023/11/22 06:12:59;;;;;;;5.28;3.95;;;8.40;64.60;;;;;;5039326;28;20152;-77
2023/11/22 06:15:25;;;;;;;7.70;3.20;;;8.40;64.60;;;;;;5022928;28;20163;-77
2023/11/22 06:17:51;;;;;;;5.57;4.60;;;8.40;64.60;;;;;;5024573;28;20029;-76
2023/11/22 06:20:17;;;;;;;4.75;3.95;;;8.40;64.60;;;;;;5017476;28;20074;-77
2023/11/22 06:22:44;;;;;;;7.05;4.00;;;8.40;65.10;;;;;;5018203;28;20026;-77
2023/11/22 06:25:13;;;;;;;5.40;4.90;;;8.30;64.40;;;;;;5020247;28;20052;-77
2023/11/22 06:27:40;;;;;;;4.90;4.20;;;8.40;64.60;;;;;;5024488;28;20153;-78
2023/11/22 06:30:06;;;;;;;5.10;4.63;;;8.30;64.40;;;;;;5015712;28;20044;-77
2023/11/22 06:32:33;;;;;;;5.45;4.13;;;8.40;64.70;;;;;;5015827;28;20037;-78
2023/11/22 06:35:00;;;;;;;4.72;4.32;;;8.40;64.70;;;;;;5022097;28;20408;-78
2023/11/22 06:37:26;;;;;;;5.38;4.38;;;8.40;64.70;;;;;;5019320;28;20493;-79
2023/11/22 06:39:52;;;;;;;5.43;4.85;;;8.40;64.70;;;;;;5016848;28;20021;-80
2023/11/22 06:42:19;;;;;;;5.97;4.55;;;8.30;64.60;;;;;;5030745;28;20032;-78
2023/11/22 06:44:47;;;;;;;5.75;4.53;;;8.30;64.60;;;;;;5015929;28;20036;-78
2023/11/22 06:47:16;;;;;;;5.72;5.07;;;8.40;64.80;;;;;;5053261;28;20056;-78
2023/11/22 06:49:43;;;;;;;5.47;4.82;;;8.30;64.70;;;;;;5044084;28;20064;-78
2023/11/22 06:52:09;;;;;;;7.30;5.05;;;8.30;64.70;;;;;;5032001;28;20045;-78
2023/11/22 06:54:36;;;;;;;5.55;4.63;;;8.30;64.80;;;;;;5011747;28;20044;-79
2023/11/22 06:57:05;;;;;;;5.82;4.28;;;8.30;64.80;;;;;;5023285;28;20025;-79
2023/11/22 06:59:31;;;;;;;7.47;5.10;;;8.30;64.90;;;;;;5021123;28;20033;-80
2023/11/22 07:01:57;;;;;;;4.75;4.35;;;8.30;65.10;;;;;;5016380;28;20111;-79
2023/11/22 07:04:23;;;;;;;7.25;4.95;;;8.40;65.40;;;;;;5006787;28;20139;-79
2023/11/22 07:06:49;;;;;;;5.35;4.72;;;8.40;65.40;;;;;;5024076;28;20270;-80
2023/11/22 07:09:15;;;;;;;5.85;4.82;;;8.40;65.50;;;;;;5020230;28;20509;-78
2023/11/22 07:11:44;;;;;;;7.78;4.38;;;8.40;65.50;;;;;;5022997;28;20498;-79
2023/11/22 07:14:10;;;;;;;7.05;4.75;;;8.40;65.50;;;;;;5021705;28;20508;-79
2023/11/22 07:16:37;;;;;;;8.15;4.70;;;8.40;65.60;;;;;;5039242;28;20045;-80
2023/11/22 07:19:03;;;;;;;5.90;4.45;;;8.40;65.70;;;;;;5034785;28;20076;-80
2023/11/22 07:21:30;;;;;;;6.07;4.60;;;8.40;65.70;;;;;;5019780;28;20037;-79
2023/11/22 07:23:56;;;;;;;4.95;4.30;;;8.40;65.80;;;;;;4996913;28;20396;-78
2023/11/22 07:26:22;;;;;;;5.25;4.45;;;8.50;66.00;;;;;;5022236;28;20376;-78
2023/11/22 07:28:48;;;;;;;6.25;4.55;;;8.50;66.00;;;;;;5011046;28;20029;-78
2023/11/22 07:31:14;;;;;;;5.15;4.45;;;8.50;66.00;;;;;;5018430;28;20091;-79
2023/11/22 07:33:40;;;;;;;5.20;4.53;;;8.50;66.10;;;;;;5012612;28;20026;-79
2023/11/22 07:36:07;;;;;;;5.25;3.63;;;8.50;66.10;;;;;;5014658;28;20033;-79
2023/11/22 07:38:33;;;;;;;4.13;3.72;;;8.50;66.10;;;;;;5018719;28;20133;-79
2023/11/22 07:41:00;;;;;;;6.65;4.05;;;8.50;66.20;;;;;;5013985;28;20056;-79
2023/11/22 07:43:26;;;;;;;6.63;4.20;;;8.50;66.20;;;;;;5026304;28;20488;-79
2023/11/22 07:45:53;;;;;;;5.47;4.78;;;8.50;66.20;;;;;;5045424;28;20441;-79
2023/11/22 07:48:20;;;;;;;5.22;3.72;;;8.50;66.20;;;;;;5015563;28;20505;-79
2023/11/22 07:50:48;;;;;;;6.18;3.75;;;8.50;66.20;;;;;;5018192;28;20049;-79
2023/11/22 07:53:18;;;;;;;5.38;3.92;;;8.60;66.40;;;;;;5015907;28;20290;-80
2023/11/22 07:55:44;;;;;;;6.30;4.65;;;8.50;66.20;;;;;;5018333;28;20148;-79
2023/11/22 07:58:11;;;;;;;4.63;3.58;;;8.50;66.30;;;;;;5015842;28;20052;-79
2023/11/22 08:00:38;;;;;;;5.55;4.45;;;8.60;66.40;;;;;;5018420;28;20061;-80
2023/11/22 08:03:06;;;;;;;6.85;4.25;;;8.60;66.50;;;;;;5014111;28;20029;-79
2023/11/22 08:05:37;;;;;;;6.65;4.70;;;8.60;66.50;;;;;;5011914;28;20512;-79
2023/11/22 08:08:07;;;;;;;4.97;4.45;;;8.60;66.50;;;;;;5016429;28;20029;-80
2023/11/22 08:10:37;;;;;;;6.45;4.68;;;8.60;66.50;;;;;;5017373;28;20214;-80
2023/11/22 08:13:06;;;;;;;6.13;4.63;;;8.60;66.50;;;;;;5013515;28;20038;-79
2023/11/22 08:15:35;;;;;;;4.90;4.30;;;8.60;66.50;;;;;;5015549;28;20068;-79
2023/11/22 08:18:05;;;;;;;5.80;4.25;;;8.60;66.50;;;;;;5020919;28;20032;-80
2023/11/22 08:20:32;;;;;;;6.15;4.47;;;8.70;66.70;;;;;;5014474;28;20096;-79
2023/11/22 08:22:59;;;;;;;5.88;4.60;;;8.70;66.70;;;;;;5022759;28;20041;-80
2023/11/22 08:25:26;;;;;;;4.35;3.95;;;8.70;66.70;;;;;;5018130;28;20446;-79
2023/11/22 08:27:53;;;;;;;6.15;4.43;;;8.70;66.80;;;;;;5020393;28;20061;-80
2023/11/22 08:30:23;;;;;;;6.13;4.05;;;8.70;66.80;;;;;;5015475;28;20033;-80
2023/11/22 08:32:53;;;;;;;4.22;3.83;;;8.70;66.80;;;;;;5019566;28;20102;-79
2023/11/22 08:35:21;;;;;;;6.32;4.38;;;8.70;66.80;;;;;;5020714;28;20109;-80
2023/11/22 08:37:50;;;;;;;4.88;3.72;;;8.70;66.80;;;;;;5025505;28;20035;-79
2023/11/22 08:40:20;;;;;;;4.68;3.92;;;8.70;66.80;;;;;;5017746;28;20144;-79
2023/11/22 08:42:47;;;;;;;4.50;4.03;;;8.80;67.10;;;;;;5042263;28;20068;-79
2023/11/22 08:45:14;;;;;;;7.03;4.57;;;8.80;67.10;;;;;;5022858;28;20049;-79
2023/11/22 08:47:40;;;;;;;3.88;3.50;;;8.80;67.00;;;;;;5028742;28;20057;-79
2023/11/22 08:50:10;;;;;;;6.30;3.03;;;8.90;67.20;;;;;;5020141;28;20140;-79
2023/11/22 08:52:41;;;;;;;7.50;4.50;;;8.90;67.30;;;;;;5030152;28;20056;-79
2023/11/22 08:55:08;;;;;;;4.57;4.15;;;8.90;67.80;;;;;;5026057;28;20543;-79
2023/11/22 08:57:37;;;;;;;5.85;4.07;;;9.10;68.70;;;;;;5027199;28;20029;-79
2023/11/22 09:00:08;;;;;;;5.88;3.60;;;9.50;69.60;;;;;;5022240;28;20103;-79
2023/11/22 09:02:36;;;;;;;4.50;3.67;;;9.70;70.00;;;;;;5023597;28;20460;-79
2023/11/22 09:05:06;;;;;;;4.93;3.40;;;10.00;70.30;;;;;;5018369;28;20213;-79
2023/11/22 09:07:33;;;;;;;6.18;3.58;;;10.30;70.70;;;;;;5018844;28;20045;-79
2023/11/22 09:09:59;;;;;;;4.55;3.72;;;10.60;70.90;;;;;;5029766;28;20033;-79
2023/11/22 09:12:27;;;;;;;5.05;2.75;;;10.90;71.20;;;;;;5019518;28;20035;-79
2023/11/22 09:14:53;;;;;;;3.67;3.10;;;11.10;71.20;;;;;;5022176;28;20496;-79
2023/11/22 09:17:20;;;;;;;4.75;2.80;;;11.40;71.40;;;;;;5021511;28;20172;-78
2023/11/22 09:19:47;;;;;;;2.75;2.50;;;11.60;71.50;;;;;;5020467;28;20026;-78
2023/11/22 09:22:14;;;;;;;3.08;2.33;;;11.80;71.60;;;;;;5026127;28;20032;-79
2023/11/22 09:24:44;;;;;;;2.50;2.13;;;12.00;71.60;;;;;;5020635;28;20044;-78
2023/11/22 09:27:15;;;;;;;3.92;2.55;;;12.20;71.70;;;;;;5021698;28;20512;-79
2023/11/22 09:29:41;;;;;;;4.40;2.30;;;12.40;71.70;;;;;;5025872;28;20379;-78
2023/11/22 09:32:08;;;;;;;2.65;1.83;;;12.60;71.80;;;;;;5019913;28;20078;-80
2023/11/22 09:34:35;;;;;;;3.17;2.15;;;12.70;71.70;;;;;;5019871;28;20032;-79
2023/11/22 09:37:01;;;;;;;5.10;2.58;;;12.90;71.80;;;;;;5039281;28;20041;-79
2023/11/22 09:39:29;;;;;;;3.10;2.40;;;13.00;71.80;;;;;;5028363;28;20366;-79
2023/11/22 09:41:56;;;;;;;4.45;1.95;;;13.10;71.70;;;;;;5017882;28;20049;-79
2023/11/22 09:44:22;;;;;;;3.15;1.88;;;13.30;71.80;;;;;;5022752;28;20484;-79
2023/11/22 09:46:50;;;;;;;3.25;1.90;;;13.40;71.80;;;;;;5028136;28;20041;-79
2023/11/22 09:49:23;;;;;;;2.95;1.80;;;13.60;71.90;;;;;;5019159;28;20479;-79
2023/11/22 09:51:54;;;;;;;4.97;2.10;;;13.70;71.80;;;;;;5030955;28;20033;-79
2023/11/22 09:54:29;;;;;;;3.13;1.90;;;13.90;71.90;;;;;;5017696;28;20083;-80
2023/11/22 09:57:00;;;;;;;2.45;1.75;;;14.00;71.80;;;;;;5033065;28;20029;-79
2023/11/22 09:59:28;;;;;;;2.38;1.38;;;14.10;71.60;;;;;;5009876;28;20588;-79
2023/11/22 10:01:55;;;;;;;1.65;1.52;;;14.20;71.60;;;;;;5017110;28;20033;-79
2023/11/22 10:04:21;;;;;;;5.15;1.75;;;14.40;71.70;;;;;;5020848;28;20036;-78
2023/11/22 10:06:49;;;;;;;3.42;1.80;;;14.40;71.40;;;;;;5021630;28;20037;-79
2023/11/22 10:09:15;;;;;;;3.97;1.67;;;14.50;71.40;;;;;;5013122;28;20036;-79
2023/11/22 10:11:43;;;;;;;3.88;1.83;;;14.60;71.40;;;;;;5024209;28;20140;-79
2023/11/22 10:14:09;;;;;;;2.13;1.70;;;14.70;71.40;;;;;;5024225;28;20057;-78
2023/11/22 10:16:36;;;;;;;24.55;5.68;;;14.80;71.30;;;;;;5017612;28;20068;-77
2023/11/22 10:19:06;;;;;;;24.90;5.13;;;14.90;71.20;;;;;;5028212;28;20691;-78
2023/11/22 10:21:32;;;;;;;18.83;5.70;;;15.00;71.10;;;;;;5027633;28;20025;-77
2023/11/22 10:24:03;;;;;;;12.75;3.72;;;15.00;70.90;;;;;;5025617;28;20299;-79
2023/11/22 10:26:30;;;;;;;11.20;3.63;;;15.10;70.80;;;;;;5025581;28;20041;-80
2023/11/22 10:28:57;;;;;;;8.38;3.28;;;15.10;70.70;;;;;;5026524;28;20029;-80
2023/11/22 10:31:24;;;;;;;5.85;2.45;;;15.10;70.60;;;;;;5022973;28;20083;-80
2023/11/22 10:33:57;;;;;;;6.47;2.60;;;15.00;70.30;;;;;;5020565;28;20091;-79
2023/11/22 10:36:26;;;;;;;6.20;2.20;;;15.00;70.20;;;;;;5024364;28;20117;-79
2023/11/22 10:38:54;;;;;;;7.80;2.42;;;15.10;70.40;;;;;;5024779;28;20037;-79
2023/11/22 10:41:24;;;;;;;4.43;2.40;;;15.00;70.20;;;;;;5024245;28;20049;-80
2023/11/22 10:43:55;;;;;;;5.38;1.85;;;15.10;70.30;;;;;;5037765;28;20028;-79
2023/11/22 10:46:27;;;;;;;3.90;1.90;;;15.10;70.20;;;;;;5021334;28;20509;-80
2023/11/22 10:48:54;;;;;;;6.35;2.67;;;15.10;70.10;;;;;;5024906;28;20519;-79
2023/11/22 10:51:23;;;;;;;6.03;1.67;;;15.20;70.20;;;;;;5003551;28;20034;-79
2023/11/22 10:53:52;;;;;;;5.97;1.98;;;15.20;70.10;;;;;;5019059;28;20048;-77
2023/11/22 10:56:19;;;;;;;4.60;2.28;;;15.20;69.90;;;;;;5028593;28;20128;-79
2023/11/22 10:58:52;;;;;;;5.63;1.70;;;15.20;69.80;;;;;;5019735;28;20106;-79
2023/11/22 11:01:21;;;;;;;7.33;3.03;;;15.30;69.90;;;;;;5020778;28;20477;-79
2023/11/22 11:04:06;;;;;;;3.83;2.08;;;15.30;69.80;;;;;;5043544;28;20061;-80
2023/11/22 11:06:35;;;;;;;3.53;2.30;;;15.30;69.60;;;;;;5012168;28;20161;-79
2023/11/22 11:09:08;;;;;;;8.57;2.35;;;15.30;69.60;;;;;;5019691;28;20670;-78
2023/11/22 11:11:36;;;;;;;5.68;2.20;;;15.30;69.50;;;;;;5023038;28;20037;-79
2023/11/22 11:14:05;;;;;;;3.83;1.77;;;15.40;69.60;;;;;;5034105;28;20123;-79
2023/11/22 11:16:37;;;;;;;5.80;2.65;;;15.30;69.40;;;;;;5019435;28;20021;-79
2023/11/22 11:19:05;;;;;;;5.47;2.55;;;15.40;69.50;;;;;;5016378;28;20037;-79
2023/11/22 11:21:35;;;;;;;4.00;2.13;;;15.30;69.20;;;;;;5020468;28;20527;-79
2023/11/22 11:24:05;;;;;;;4.20;2.08;;;15.40;69.40;;;;;;5021161;28;20055;-79
2023/11/22 11:26:34;;;;;;;4.57;2.22;;;15.40;69.40;;;;;;5051355;28;20045;-79
2023/11/22 11:29:04;;;;;;;4.47;1.73;;;15.30;69.10;;;;;;5019772;28;20033;-80
2023/11/22 11:31:39;;;;;;;3.13;2.05;;;15.40;69.30;;;;;;5014230;28;20127;-80
2023/11/22 11:34:06;;;;;;;3.20;2.20;;;15.40;69.30;;;;;;5021011;28;20120;-79
2023/11/22 11:36:33;;;;;;;4.43;1.83;;;15.30;69.10;;;;;;5021140;28;20026;-79
2023/11/22 11:39:05;;;;;;;4.75;2.10;;;15.40;69.30;;;;;;5024500;28;20034;-79
2023/11/22 11:41:33;;;;;;;3.80;1.90;;;15.40;69.20;;;;;;5028663;28;20124;-79
2023/11/22 11:44:02;;;;;;;3.55;1.80;;;15.40;69.20;;;;;;5016387;28;20285;-79
2023/11/22 11:46:30;;;;;;;4.68;2.03;;;15.40;69.10;;;;;;5021655;28;20079;-79
2023/11/22 11:48:56;;;;;;;4.38;2.25;;;15.50;69.20;;;;;;5017334;28;20025;-79
2023/11/22 11:51:25;;;;;;;3.88;1.58;;;15.60;69.30;;;;;;5010747;28;20048;-79
2023/11/22 11:53:56;;;;;;;3.58;1.70;;;15.60;69.10;;;;;;5021995;28;20124;-78
2023/11/22 11:56:23;;;;;;;3.42;1.65;;;15.70;69.10;;;;;;5023535;28;20119;-79
2023/11/22 11:58:50;;;;;;;4.38;2.10;;;15.90;69.20;;;;;;5018408;28;20526;-78
2023/11/22 12:01:17;;;;;;;6.70;2.22;;;16.00;69.10;;;;;;5018619;28;20037;-79
2023/11/22 12:03:44;;;;;;;3.67;2.08;;;16.10;69.00;;;;;;5022657;28;20397;-79
2023/11/22 12:06:11;;;;;;;5.88;2.15;;;16.20;68.90;;;;;;5020001;28;20083;-79
2023/11/22 12:08:40;;;;;;;3.72;2.15;;;16.30;68.70;;;;;;5035916;28;20398;-79
2023/11/22 12:11:08;;;;;;;6.55;2.67;;;16.40;68.60;;;;;;5016742;28;20505;-78
2023/11/22 12:13:38;;;;;;;3.67;2.00;;;16.50;68.50;;;;;;5017068;28;20029;-78
2023/11/22 12:16:11;;;;;;;5.47;2.83;;;16.60;68.50;;;;;;5017149;28;20141;-82
2023/11/22 12:18:45;;;;;;;3.10;2.08;;;16.70;68.50;;;;;;5029452;28;20041;-79
2023/11/22 12:21:16;;;;;;;3.35;1.65;;;16.70;68.30;;;;;;5015269;28;20036;-79
2023/11/22 12:23:47;;;;;;;2.80;1.30;;;16.70;68.30;;;;;;5030865;28;20128;-78
2023/11/22 12:26:17;;;;;;;3.25;1.98;;;16.70;68.10;;;;;;5024039;28;20586;-79
2023/11/22 12:28:48;;;;;;;3.95;1.92;;;16.80;68.30;;;;;;5018078;28;20060;-77
2023/11/22 12:31:15;;;;;;;4.82;2.05;;;16.70;68.00;;;;;;5011596;28;20129;-78
2023/11/22 12:33:43;;;;;;;2.42;1.30;;;16.80;68.20;;;;;;5024762;28;20195;-77
2023/11/22 12:36:13;;;;;;;3.13;1.48;;;16.70;68.00;;;;;;5018983;28;20124;-77
2023/11/22 12:38:41;;;;;;;2.55;1.55;;;16.70;68.00;;;;;;5022226;28;20034;-77
2023/11/22 12:41:11;;;;;;;3.03;1.45;;;16.70;68.00;;;;;;5018551;28;20050;-77
2023/11/22 12:43:40;;;;;;;5.00;1.77;;;16.70;68.00;;;;;;5012571;28;20175;-76
2023/11/22 12:46:07;;;;;;;2.55;1.67;;;16.70;68.00;;;;;;5022327;28;20079;-80
2023/11/22 12:48:33;;;;;;;2.40;1.63;;;16.70;67.90;;;;;;5034223;28;20317;-80
2023/11/22 12:51:00;;;;;;;1.30;0.98;;;16.60;67.80;;;;;;5009672;28;20060;-77
2023/11/22 12:53:30;;;;;;;3.90;1.67;;;16.70;67.90;;;;;;5017474;28;20136;-77
2023/11/22 12:55:59;;;;;;;3.95;1.75;;;16.70;67.90;;;;;;5023895;28;20025;-77